Time;durP1;ratioP1;P1;durP2;ratioP2;P2;SDS_P1;SDS_P2;PMS_P1;PMS_P2;Temp;Humidity;BMP_temperature;BMP_pressure;BME280_temperature;BME280_humidity;BME280_pressure;Samples;Min_cycle;Max_cycle;Signal;HPM_P1;HPM_P2
2022/11/14 00:00:35;;;;;;;15.43;5.70;;;;;;;42.37;34.59;101159.13;5113661;28;20416;-71
2022/11/14 00:03:03;;;;;;;12.23;5.70;;;;;;;42.35;34.56;101155.94;5115331;28;20491;-72
2022/11/14 00:05:29;;;;;;;12.00;5.53;;;;;;;42.20;34.89;101156.50;5096848;28;20430;-71
2022/11/14 00:07:55;;;;;;;27.73;8.80;;;;;;;42.07;34.96;101160.25;5096698;28;20419;-72
2022/11/14 00:10:21;;;;;;;19.20;9.90;;;;;;;42.28;34.92;101152.94;5113948;28;20463;-73
2022/11/14 00:12:47;;;;;;;18.10;7.27;;;;;;;42.24;35.04;101157.47;5115099;28;20913;-73
2022/11/14 00:15:14;;;;;;;15.47;7.30;;;;;;;42.07;35.51;101155.59;5115031;28;20438;-73
2022/11/14 00:17:40;;;;;;;16.40;5.80;;;;;;;42.28;35.10;101142.03;5096737;28;20420;-72
2022/11/14 00:20:08;;;;;;;12.93;6.30;;;;;;;42.19;34.86;101129.59;5113879;28;20432;-72
2022/11/14 00:22:34;;;;;;;13.87;7.33;;;;;;;42.09;35.26;101133.44;5114727;28;20477;-71
2022/11/14 00:25:00;;;;;;;14.13;7.70;;;;;;;42.02;35.58;101133.16;5113177;28;20489;-72
2022/11/14 00:27:26;;;;;;;12.40;6.50;;;;;;;42.16;35.81;101131.03;5113131;28;20416;-71
2022/11/14 00:29:52;;;;;;;13.43;7.47;;;;;;;42.36;35.22;101130.28;5113180;28;20504;-72
2022/11/14 00:32:19;;;;;;;14.30;7.30;;;;;;;42.24;35.46;101135.66;5114738;28;20211;-71
2022/11/14 00:34:45;;;;;;;11.20;5.50;;;;;;;41.95;35.79;101135.63;5112936;28;20786;-71
2022/11/14 00:37:11;;;;;;;10.53;6.13;;;;;;;41.97;35.90;101136.88;5113622;28;20446;-71
2022/11/14 00:39:36;;;;;;;15.67;6.40;;;;;;;41.70;36.40;101129.13;5112965;28;20384;-72
2022/11/14 00:42:02;;;;;;;10.43;6.03;;;;;;;41.95;35.88;101122.00;5114539;28;20401;-72
2022/11/14 00:44:28;;;;;;;14.23;6.33;;;;;;;41.80;36.51;101124.13;5113387;28;20473;-71
2022/11/14 00:46:54;;;;;;;10.20;5.57;;;;;;;41.73;36.42;101117.56;5112660;28;20775;-71
2022/11/14 00:49:20;;;;;;;14.53;6.20;;;;;;;41.90;36.27;101114.00;5112443;28;20482;-71
2022/11/14 00:51:46;;;;;;;15.40;6.60;;;;;;;42.12;35.59;101121.91;5112738;28;20551;-71
2022/11/14 00:54:12;;;;;;;11.30;5.70;;;;;;;41.75;36.70;101110.69;5112523;28;20511;-71
2022/11/14 00:56:38;;;;;;;16.20;6.20;;;;;;;41.89;36.22;101101.50;5130163;27;20419;-71
2022/11/14 00:59:04;;;;;;;22.67;6.70;;;;;;;42.12;35.97;101103.63;5112205;28;20774;-73
2022/11/14 01:01:30;;;;;;;22.33;7.93;;;;;;;42.10;35.79;101097.69;5114101;28;20396;-73
2022/11/14 01:03:56;;;;;;;15.33;6.77;;;;;;;42.05;36.02;101102.50;5112529;28;20503;-73
2022/11/14 01:06:22;;;;;;;17.23;7.07;;;;;;;42.15;35.79;101107.59;5113852;28;20439;-73
2022/11/14 01:08:50;;;;;;;17.50;8.53;;;;;;;42.12;35.36;101103.63;5112892;28;20400;-73
2022/11/14 01:11:20;;;;;;;10.10;5.50;;;;;;;42.21;35.49;101103.59;5112198;28;20524;-72
2022/11/14 01:13:46;;;;;;;16.53;7.20;;;;;;;42.19;35.82;101107.78;5112243;28;20593;-72
2022/11/14 01:16:12;;;;;;;15.93;6.73;;;;;;;42.28;35.22;101095.69;5112264;28;20412;-72
2022/11/14 01:18:39;;;;;;;15.63;7.30;;;;;;;42.30;35.16;101093.44;5112181;28;20419;-71
2022/11/14 01:21:07;;;;;;;12.27;5.90;;;;;;;42.40;34.91;101094.94;5112204;28;20809;-71
2022/11/14 01:23:34;;;;;;;12.37;6.00;;;;;;;42.32;34.81;101095.81;5113711;28;20395;-71
2022/11/14 01:26:08;;;;;;;16.40;6.53;;;;;;;42.27;34.64;101091.34;5112015;28;20444;-73
2022/11/14 01:28:35;;;;;;;12.20;6.93;;;;;;;42.45;34.42;101085.78;5113607;28;20905;-73
2022/11/14 01:31:16;;;;;;;14.27;6.40;;;;;;;42.42;34.20;101087.25;5111931;28;20471;-73
2022/11/14 01:33:43;;;;;;;12.20;7.90;;;;;;;42.42;34.51;101095.44;5111866;28;20424;-73
2022/11/14 01:36:09;;;;;;;17.47;6.33;;;;;;;42.39;34.71;101085.97;5112089;28;20462;-73
2022/11/14 01:38:36;;;;;;;15.73;5.90;;;;;;;42.25;34.68;101090.09;5111804;28;20411;-72
2022/11/14 01:41:04;;;;;;;20.17;7.13;;;;;;;42.36;34.56;101080.41;5111757;28;20964;-71
2022/11/14 01:43:35;;;;;;;10.87;7.07;;;;;;;42.18;34.83;101074.28;5113522;28;20399;-72
2022/11/14 01:46:22;;;;;;;22.07;7.17;;;;;;;42.07;34.74;101073.03;5113400;28;20394;-72
2022/11/14 01:49:13;;;;;;;11.93;7.27;;;;;;;42.11;34.72;101074.78;5094845;28;20444;-72
2022/11/14 01:51:57;;;;;;;14.70;7.13;;;;;;;42.23;34.76;101065.88;5093203;28;20437;-71
2022/11/14 01:54:36;;;;;;;11.93;5.40;;;;;;;42.17;34.84;101074.59;5091411;28;20428;-71
2022/11/14 01:57:04;;;;;;;12.17;8.23;;;;;;;42.15;34.63;101072.16;5091270;28;20425;-71
2022/11/14 01:59:37;;;;;;;12.73;7.00;;;;;;;42.09;35.08;101073.47;5092973;28;20399;-72
2022/11/14 02:02:10;;;;;;;12.53;7.90;;;;;;;42.15;35.01;101066.72;5074867;28;20441;-72
2022/11/14 02:04:41;;;;;;;11.47;6.83;;;;;;;42.30;34.52;101062.66;5071242;28;20469;-71
2022/11/14 02:07:09;;;;;;;10.20;6.33;;;;;;;42.33;34.81;101065.50;5071173;28;20453;-72
2022/11/14 02:09:37;;;;;;;13.00;6.63;;;;;;;42.37;34.21;101063.69;5070972;28;20453;-72
2022/11/14 02:12:07;;;;;;;14.90;5.73;;;;;;;42.29;34.19;101064.53;5073223;28;20421;-71
2022/11/14 02:14:36;;;;;;;15.73;8.03;;;;;;;42.29;34.08;101066.47;5079462;28;20408;-71
2022/11/14 02:17:02;;;;;;;16.33;6.63;;;;;;;42.25;34.41;101063.63;5075195;28;20930;-71
2022/11/14 02:19:47;;;;;;;21.30;9.17;;;;;;;42.29;34.29;101056.38;5076512;28;20752;-73
2022/11/14 02:22:13;;;;;;;25.47;14.57;;;;;;;41.64;36.03;101057.69;5076444;28;20443;-73
2022/11/14 02:24:40;;;;;;;24.90;17.27;;;;;;;41.61;36.30;101050.16;5074831;28;20508;-72
2022/11/14 02:27:07;;;;;;;34.10;19.63;;;;;;;41.61;36.32;101052.88;5074889;28;20445;-72
2022/11/14 02:29:34;;;;;;;28.63;21.20;;;;;;;41.55;36.75;101056.91;5074703;28;20879;-71
2022/11/14 02:32:00;;;;;;;31.70;22.10;;;;;;;40.99;37.98;101056.88;5074637;28;20422;-71
2022/11/14 02:34:26;;;;;;;33.53;21.20;;;;;;;41.32;37.12;101054.44;5076310;28;20459;-72
2022/11/14 02:36:53;;;;;;;39.23;19.90;;;;;;;41.20;37.05;101059.75;5074743;28;20421;-72
2022/11/14 02:39:19;;;;;;;28.07;20.87;;;;;;;40.95;38.02;101060.59;5074475;28;20422;-71
2022/11/14 02:41:45;;;;;;;28.37;20.90;;;;;;;40.95;37.63;101057.88;5074579;28;20445;-71
2022/11/14 02:44:11;;;;;;;23.20;19.67;;;;;;;41.36;37.22;101057.28;5076001;28;20429;-71
2022/11/14 02:46:37;;;;;;;28.30;19.03;;;;;;;41.50;37.14;101046.22;5074715;28;20421;-71
2022/11/14 02:49:03;;;;;;;26.63;18.13;;;;;;;41.61;36.65;101053.66;5060450;28;20207;-71
2022/11/14 02:51:29;;;;;;;27.10;16.43;;;;;;;41.51;36.88;101050.53;5097987;28;20451;-72
2022/11/14 02:53:55;;;;;;;21.83;18.83;;;;;;;41.58;36.55;101053.53;5098208;28;20484;-72
2022/11/14 02:56:21;;;;;;;31.37;18.53;;;;;;;41.52;36.58;101050.19;5097838;28;20496;-71
2022/11/14 02:58:47;;;;;;;20.70;15.10;;;;;;;40.98;37.47;101049.84;5097898;28;20928;-72
2022/11/14 03:01:13;;;;;;;24.23;16.27;;;;;;;41.13;37.55;101051.28;5116434;28;20395;-70
2022/11/14 03:03:38;;;;;;;27.57;16.40;;;;;;;41.22;37.51;101052.03;5098077;28;20423;-71
2022/11/14 03:06:05;;;;;;;26.43;16.07;;;;;;;40.93;38.30;101050.00;5097994;28;20497;-71
2022/11/14 03:08:31;;;;;;;53.53;20.17;;;;;;;40.57;38.39;101053.06;5097538;28;20212;-72
2022/11/14 03:11:06;;;;;;;26.00;18.10;;;;;;;40.38;38.87;101049.81;5097613;28;20456;-71
2022/11/14 03:13:33;;;;;;;29.90;20.20;;;;;;;40.29;39.36;101047.91;5097502;28;20415;-71
2022/11/14 03:16:10;;;;;;;24.77;19.40;;;;;;;40.10;39.49;101047.41;5097453;28;20455;-71
2022/11/14 03:18:36;;;;;;;21.67;17.23;;;;;;;40.46;38.88;101049.03;5097412;28;20510;-71
2022/11/14 03:21:14;;;;;;;24.63;18.83;;;;;;;40.34;39.26;101051.59;5097440;28;20408;-71
2022/11/14 03:23:41;;;;;;;24.10;18.43;;;;;;;40.49;38.58;101043.78;5080847;28;20477;-71
2022/11/14 03:26:09;;;;;;;26.97;18.23;;;;;;;40.45;39.11;101041.97;5116071;28;20392;-71
2022/11/14 03:28:36;;;;;;;21.30;18.40;;;;;;;40.81;38.39;101039.75;5097320;28;20450;-72
2022/11/14 03:31:02;;;;;;;30.90;19.07;;;;;;;40.61;38.54;101039.63;5080220;28;20555;-71
2022/11/14 03:33:28;;;;;;;29.03;18.00;;;;;;;40.62;38.36;101033.06;5115877;28;20412;-71
2022/11/14 03:35:55;;;;;;;28.63;19.57;;;;;;;40.62;38.43;101036.56;5097151;28;20857;-71
2022/11/14 03:38:21;;;;;;;25.33;18.63;;;;;;;40.80;37.99;101037.38;5080085;28;20432;-71
2022/11/14 03:40:51;;;;;;;27.20;16.30;;;;;;;40.83;37.99;101034.00;5097112;28;20814;-72
2022/11/14 03:43:19;;;;;;;22.13;14.63;;;;;;;40.78;38.13;101039.63;5097104;28;20952;-71
2022/11/14 03:45:45;;;;;;;17.87;14.60;;;;;;;40.69;38.00;101047.75;5063418;28;20419;-71
2022/11/14 03:48:12;;;;;;;22.73;16.37;;;;;;;41.04;38.02;101048.56;5107441;28;20416;-73
2022/11/14 03:50:39;;;;;;;29.23;15.23;;;;;;;41.22;37.44;101054.75;5096643;28;20483;-73
2022/11/14 03:53:05;;;;;;;20.80;15.00;;;;;;;41.27;36.93;101061.94;5096641;28;20412;-73
2022/11/14 03:55:32;;;;;;;22.23;14.73;;;;;;;41.30;37.15;101064.81;5096857;28;20423;-74
2022/11/14 03:57:59;;;;;;;22.83;15.37;;;;;;;41.21;37.13;101063.25;5115254;28;20951;-73
2022/11/14 04:00:27;;;;;;;18.97;13.50;;;;;;;41.24;37.30;101057.94;5096607;28;20418;-71
2022/11/14 04:02:54;;;;;;;20.63;13.90;;;;;;;40.92;37.11;101061.22;5097534;27;20446;-71
2022/11/14 04:05:21;;;;;;;19.53;15.20;;;;;;;41.04;37.09;101067.59;5096692;28;20408;-71
2022/11/14 04:07:47;;;;;;;18.40;13.37;;;;;;;41.07;37.08;101066.97;5097193;28;20424;-71
2022/11/14 04:10:13;;;;;;;17.33;14.40;;;;;;;41.19;37.15;101068.19;5096505;28;20451;-71
2022/11/14 04:12:39;;;;;;;21.00;14.77;;;;;;;41.05;36.97;101073.84;5096613;28;20408;-72
2022/11/14 04:15:06;;;;;;;18.00;14.07;;;;;;;40.85;37.83;101058.16;5115180;28;20445;-71
2022/11/14 04:17:32;;;;;;;15.90;13.23;;;;;;;41.02;37.04;101061.69;5096214;28;20495;-71
2022/11/14 04:19:58;;;;;;;19.57;13.47;;;;;;;41.11;37.18;101063.59;5096372;28;20617;-72
2022/11/14 04:22:24;;;;;;;21.23;13.87;;;;;;;41.20;36.66;101065.19;5114729;28;20465;-71
2022/11/14 04:24:49;;;;;;;16.67;12.93;;;;;;;40.97;37.23;101071.94;5079298;28;20648;-72
2022/11/14 04:27:15;;;;;;;25.23;16.37;;;;;;;40.88;37.31;101066.47;5114736;28;20419;-71
2022/11/14 04:29:41;;;;;;;20.90;12.50;;;;;;;40.94;37.49;101067.94;5062646;28;20459;-71
2022/11/14 04:32:07;;;;;;;17.87;13.30;;;;;;;40.97;37.00;101061.06;5114526;28;20412;-71
2022/11/14 04:34:33;;;;;;;20.70;15.93;;;;;;;40.91;36.93;101057.72;5113443;28;20535;-72
2022/11/14 04:36:59;;;;;;;20.53;13.57;;;;;;;40.78;37.66;101061.38;5062599;28;20455;-71
2022/11/14 04:39:25;;;;;;;21.00;14.20;;;;;;;40.54;37.69;101062.66;5115731;27;20823;-71
2022/11/14 04:41:51;;;;;;;20.57;13.97;;;;;;;40.87;37.44;101061.34;5135116;27;20196;-72
2022/11/14 04:44:17;;;;;;;20.37;12.43;;;;;;;40.85;37.22;101064.41;5134778;27;20284;-72
2022/11/14 04:46:43;;;;;;;19.57;13.03;;;;;;;41.05;37.31;101065.69;5099261;27;20454;-72
2022/11/14 04:49:09;;;;;;;16.27;13.67;;;;;;;40.83;37.00;101060.41;5134586;27;20275;-73
2022/11/14 04:51:35;;;;;;;20.83;13.47;;;;;;;40.81;37.45;101063.44;5115975;27;20992;-73
2022/11/14 04:54:01;;;;;;;18.53;13.63;;;;;;;40.55;37.93;101071.63;5116034;27;20540;-73
2022/11/14 04:56:28;;;;;;;17.90;13.77;;;;;;;40.59;37.65;101069.06;5115916;27;20173;-71
2022/11/14 04:58:54;;;;;;;24.83;14.47;;;;;;;40.78;37.39;101072.25;5134818;27;20392;-72
2022/11/14 05:01:20;;;;;;;20.30;14.30;;;;;;;40.56;37.58;101078.66;5115865;27;20418;-71
2022/11/14 05:03:46;;;;;;;22.50;15.40;;;;;;;40.53;37.59;101073.84;5115890;27;20443;-71
2022/11/14 05:06:12;;;;;;;25.23;16.20;;;;;;;40.15;38.29;101070.91;5115802;27;20407;-72
2022/11/14 05:08:38;;;;;;;20.83;17.37;;;;;;;40.48;37.72;101084.88;5134473;27;20154;-72
2022/11/14 05:11:04;;;;;;;19.93;17.00;;;;;;;40.34;38.43;101085.00;5134365;27;20520;-71
2022/11/14 05:13:30;;;;;;;27.23;19.07;;;;;;;40.68;37.93;101089.69;5115595;27;20174;-71
2022/11/14 05:16:00;;;;;;;28.47;17.57;;;;;;;40.74;37.62;101095.75;5115690;27;20463;-74
2022/11/14 05:18:26;;;;;;;22.73;17.33;;;;;;;40.48;38.19;101093.03;5115506;27;20554;-73
2022/11/14 05:20:52;;;;;;;24.77;18.50;;;;;;;40.28;38.15;101097.94;5115443;27;20430;-73
2022/11/14 05:23:22;;;;;;;22.80;15.53;;;;;;;40.07;38.41;101090.69;5112520;27;20427;-71
2022/11/14 05:26:18;;;;;;;20.70;17.30;;;;;;;40.40;38.05;101091.09;5115393;27;20423;-71
2022/11/14 05:28:44;;;;;;;21.13;14.50;;;;;;;40.33;37.88;101088.84;5100569;27;20423;-72
2022/11/14 05:31:13;;;;;;;19.20;13.40;;;;;;;40.11;38.35;101094.38;5101078;28;20463;-71
2022/11/14 05:33:40;;;;;;;31.17;16.53;;;;;;;39.89;38.74;101106.09;5100893;28;20435;-72
2022/11/14 05:36:08;;;;;;;28.57;16.23;;;;;;;40.06;38.30;101098.03;5104555;27;20430;-72
2022/11/14 05:38:34;;;;;;;17.63;15.23;;;;;;;40.26;38.63;101097.44;5086579;27;21045;-72
2022/11/14 05:41:05;;;;;;;21.30;16.60;;;;;;;40.51;37.89;101095.09;5104516;27;20528;-72
2022/11/14 05:43:31;;;;;;;23.17;16.47;;;;;;;40.58;37.87;101097.34;5102190;28;20451;-72
2022/11/14 05:46:02;;;;;;;26.60;17.10;;;;;;;40.19;38.28;101096.31;5105580;27;20419;-72
2022/11/14 05:48:28;;;;;;;24.77;18.20;;;;;;;39.99;38.72;101089.53;5094670;28;20443;-72
2022/11/14 05:50:55;;;;;;;25.10;18.00;;;;;;;39.91;38.40;101095.75;5112876;28;20475;-76
2022/11/14 05:53:21;;;;;;;36.33;18.00;;;;;;;40.45;38.36;101104.50;5094079;28;20444;-73
2022/11/14 05:55:47;;;;;;;34.10;21.23;;;;;;;40.01;38.33;101123.41;5103899;28;20419;-73
2022/11/14 05:58:13;;;;;;;32.27;22.63;;;;;;;40.21;38.10;101119.34;5116378;28;20505;-72
2022/11/14 06:00:39;;;;;;;34.37;26.37;;;;;;;40.19;38.17;101120.78;5100450;28;20414;-71
2022/11/14 06:03:05;;;;;;;31.10;27.20;;;;;;;40.37;38.14;101124.34;5099836;28;20506;-72
2022/11/14 06:05:33;;;;;;;48.93;29.80;;;;;;;40.46;38.14;101128.69;5114951;28;20169;-73
2022/11/14 06:07:59;;;;;;;47.40;33.53;;;;;;;40.61;37.69;101137.53;5097246;28;20439;-71
2022/11/14 06:10:25;;;;;;;39.00;28.53;;;;;;;40.77;37.50;101149.53;5127634;28;20468;-73
2022/11/14 06:12:51;;;;;;;39.50;25.10;;;;;;;40.84;37.31;101149.06;5102982;28;20780;-73
2022/11/14 06:15:17;;;;;;;38.03;22.30;;;;;;;40.19;38.07;101156.09;5105092;28;20937;-76
2022/11/14 06:17:44;;;;;;;24.07;19.57;;;;;;;40.30;38.04;101160.13;5103063;28;20404;-72
2022/11/14 06:20:12;;;;;;;29.77;21.50;;;;;;;40.41;38.18;101166.09;5103796;28;20414;-76
2022/11/14 06:22:39;;;;;;;34.17;22.37;;;;;;;40.05;38.51;101158.94;5106013;28;20420;-75
2022/11/14 06:25:05;;;;;;;29.73;24.67;;;;;;;40.36;38.57;101171.66;5103291;28;20419;-72
2022/11/14 06:27:31;;;;;;;42.97;25.50;;;;;;;40.40;38.04;101169.94;5106174;28;20477;-75
2022/11/14 06:29:57;;;;;;;46.43;26.03;;;;;;;40.85;37.63;101173.22;5113642;28;20996;-72
2022/11/14 06:32:23;;;;;;;32.20;26.70;;;;;;;41.13;37.20;101179.19;5115006;28;20510;-72
2022/11/14 06:34:49;;;;;;;37.17;25.17;;;;;;;41.15;36.85;101178.84;5114786;28;20174;-72
2022/11/14 06:37:15;;;;;;;30.40;25.10;;;;;;;41.34;36.63;101179.34;5113475;28;20647;-72
2022/11/14 06:39:41;;;;;;;33.30;24.50;;;;;;;41.34;36.35;101179.34;5094620;28;20227;-72
2022/11/14 06:42:07;;;;;;;28.10;21.10;;;;;;;41.26;36.20;101182.84;5094187;28;20510;-75
2022/11/14 06:44:33;;;;;;;42.23;25.67;;;;;;;40.92;36.99;101184.44;5094375;28;20404;-75
2022/11/14 06:46:59;;;;;;;34.67;25.70;;;;;;;40.67;37.88;101180.56;5093484;28;20447;-74
2022/11/14 06:49:26;;;;;;;33.40;24.63;;;;;;;40.83;37.34;101180.09;5114663;28;20455;-72
2022/11/14 06:51:53;;;;;;;36.90;23.53;;;;;;;40.78;37.33;101179.13;5103591;28;20794;-73
2022/11/14 06:54:19;;;;;;;30.10;23.47;;;;;;;41.10;37.09;101181.72;5086683;28;20411;-73
2022/11/14 06:56:45;;;;;;;30.17;26.00;;;;;;;40.96;36.90;101195.50;5105069;28;20464;-76
2022/11/14 06:59:11;;;;;;;31.67;27.50;;;;;;;41.24;36.78;101191.31;5107105;27;20412;-73
2022/11/14 07:01:37;;;;;;;40.53;25.33;;;;;;;41.35;36.50;101205.44;5125597;27;20434;-72
2022/11/14 07:04:03;;;;;;;44.43;26.80;;;;;;;41.39;36.55;101209.13;5086251;28;20860;-72
2022/11/14 07:06:30;;;;;;;35.20;24.63;;;;;;;41.49;36.36;101207.97;5097654;28;20820;-72
2022/11/14 07:08:56;;;;;;;33.50;21.33;;;;;;;41.69;36.07;101207.31;5116393;28;20400;-73
2022/11/14 07:11:26;;;;;;;30.40;19.90;;;;;;;41.84;35.61;101208.72;5097604;28;20451;-73
2022/11/14 07:13:59;;;;;;;29.50;24.43;;;;;;;42.01;35.61;101213.34;5097553;28;20487;-73
2022/11/14 07:16:29;;;;;;;32.80;22.93;;;;;;;41.93;35.58;101208.69;5100233;27;20419;-73
2022/11/14 07:18:58;;;;;;;31.90;22.70;;;;;;;42.01;35.22;101216.06;5126053;27;20435;-73
2022/11/14 07:21:25;;;;;;;28.57;23.20;;;;;;;41.60;36.32;101223.66;5106196;27;20434;-73
2022/11/14 07:23:52;;;;;;;30.43;21.03;;;;;;;41.61;36.13;101227.97;5105567;27;20443;-73
2022/11/14 07:26:18;;;;;;;28.53;21.80;;;;;;;41.89;35.87;101226.84;5106979;27;20774;-73
2022/11/14 07:28:44;;;;;;;39.60;19.23;;;;;;;41.98;35.91;101233.84;5095268;28;20431;-74
2022/11/14 07:31:13;;;;;;;31.50;21.50;;;;;;;41.98;35.71;101241.22;5114130;27;20934;-72
2022/11/14 07:33:40;;;;;;;28.67;23.40;;;;;;;42.12;35.35;101242.63;5089473;28;20978;-72
2022/11/14 07:36:07;;;;;;;33.17;25.23;;;;;;;42.13;35.04;101244.22;5098409;27;20423;-72
2022/11/14 07:38:34;;;;;;;43.07;28.33;;;;;;;41.88;35.43;101247.84;5105133;27;20913;-72
2022/11/14 07:41:03;;;;;;;33.23;23.83;;;;;;;41.90;35.44;101244.78;5083750;28;20416;-75
2022/11/14 07:43:29;;;;;;;34.47;23.23;;;;;;;41.95;35.63;101253.59;5097007;28;20455;-74
2022/11/14 07:46:07;;;;;;;31.50;23.93;;;;;;;42.00;35.75;101269.75;5097377;28;20949;-74
2022/11/14 07:48:33;;;;;;;26.67;20.10;;;;;;;41.74;35.88;101263.53;5130495;27;20438;-72
2022/11/14 07:51:04;;;;;;;36.80;22.17;;;;;;;41.82;35.88;101270.94;5134767;27;21108;-72
2022/11/14 07:53:30;;;;;;;27.07;19.53;;;;;;;41.14;37.11;101273.31;5099972;27;20462;-72
2022/11/14 07:56:01;;;;;;;28.10;19.77;;;;;;;41.59;36.41;101281.97;5117039;27;20419;-72
2022/11/14 07:58:27;;;;;;;35.03;21.50;;;;;;;41.15;36.63;101285.81;5099904;27;20977;-72
2022/11/14 08:00:53;;;;;;;25.53;21.23;;;;;;;41.53;36.48;101277.03;5135605;27;20439;-74
2022/11/14 08:03:18;;;;;;;24.83;17.80;;;;;;;41.10;37.27;101283.22;5117001;27;20189;-74
2022/11/14 08:05:44;;;;;;;26.30;16.57;;;;;;;41.03;37.38;101277.47;5116708;27;20208;-74
2022/11/14 08:08:10;;;;;;;41.30;20.57;;;;;;;41.15;36.96;101283.06;5116876;27;20411;-72
2022/11/14 08:10:36;;;;;;;26.10;19.00;;;;;;;41.14;37.27;101284.19;5135376;27;20889;-72
2022/11/14 08:13:07;;;;;;;30.00;20.77;;;;;;;40.73;37.94;101285.38;5116836;27;20498;-72
2022/11/14 08:15:33;;;;;;;22.60;16.63;;;;;;;40.97;38.00;101278.72;5135473;27;20818;-72
2022/11/14 08:18:00;;;;;;;21.73;16.03;;;;;;;41.17;37.30;101289.00;5116816;27;20429;-72
2022/11/14 08:20:26;;;;;;;23.63;18.37;;;;;;;41.24;37.34;101283.88;5116608;27;20502;-74
2022/11/14 08:22:54;;;;;;;19.93;14.63;;;;;;;41.17;37.74;101289.00;5116552;27;20422;-73
2022/11/14 08:25:19;;;;;;;26.47;16.03;;;;;;;41.50;36.73;101296.75;5116453;27;20503;-73
2022/11/14 08:27:45;;;;;;;24.33;14.73;;;;;;;41.14;37.99;101297.81;5116600;27;20490;-74
2022/11/14 08:30:12;;;;;;;17.50;13.67;;;;;;;41.44;36.89;101303.47;5135142;27;20463;-74
2022/11/14 08:32:38;;;;;;;24.03;16.27;;;;;;;40.76;38.31;101297.50;5116603;27;20177;-74
2022/11/14 08:35:04;;;;;;;14.37;11.80;;;;;;;41.43;37.33;101294.47;5135138;27;20422;-74
2022/11/14 08:37:31;;;;;;;30.63;15.70;;;;;;;40.80;38.21;101293.84;5135107;27;20217;-74
2022/11/14 08:39:57;;;;;;;27.40;16.70;;;;;;;40.72;37.99;101302.81;5116375;27;20407;-74
2022/11/14 08:42:22;;;;;;;22.33;18.57;;;;;;;41.07;37.84;101300.22;5116271;27;20806;-73
2022/11/14 08:44:48;;;;;;;20.90;14.10;;;;;;;41.31;37.19;101299.72;5116347;27;20419;-73
2022/11/14 08:47:14;;;;;;;21.80;14.33;;;;;;;41.10;37.43;101301.47;5116465;27;20417;-74
2022/11/14 08:49:40;;;;;;;17.03;13.80;;;;;;;41.55;36.79;101300.06;5116059;27;20554;-73
2022/11/14 08:52:06;;;;;;;23.20;13.73;;;;;;;40.97;37.77;101297.78;5116268;27;20542;-73
2022/11/14 08:54:32;;;;;;;21.03;13.20;;;;;;;41.15;37.58;101295.88;5115958;27;20446;-74
2022/11/14 08:56:58;;;;;;;24.80;14.07;;;;;;;41.44;37.05;101295.31;5116148;27;20439;-74
2022/11/14 08:59:24;;;;;;;19.27;15.00;;;;;;;41.18;37.40;101295.25;5115851;27;20555;-75
2022/11/14 09:01:50;;;;;;;26.50;15.37;;;;;;;41.56;36.81;101284.56;5099327;27;20184;-73
2022/11/14 09:04:16;;;;;;;21.40;15.87;;;;;;;41.87;35.95;101300.75;5134710;27;20391;-73
2022/11/14 09:06:42;;;;;;;18.13;14.47;;;;;;;41.93;35.96;101298.63;5116062;27;20419;-73
2022/11/14 09:09:08;;;;;;;20.00;16.53;;;;;;;42.33;35.11;101282.81;5115895;27;20465;-73
2022/11/14 09:11:34;;;;;;;20.63;15.20;;;;;;;42.20;35.34;101281.13;5115722;27;21028;-73
2022/11/14 09:14:01;;;;;;;18.13;13.77;;;;;;;42.18;35.22;101281.44;5115861;27;20422;-73
2022/11/14 09:16:27;;;;;;;18.63;13.00;;;;;;;42.09;35.19;101286.09;5134518;27;20498;-73
2022/11/14 09:18:53;;;;;;;17.37;11.50;;;;;;;42.21;35.08;101288.16;5098689;27;20505;-73
2022/11/14 09:21:19;;;;;;;20.77;13.07;;;;;;;42.45;34.35;101282.94;5115208;27;20451;-75
2022/11/14 09:23:48;;;;;;;22.60;12.50;;;;;;;42.65;33.95;101276.75;5112251;27;20984;-75
2022/11/14 09:26:14;;;;;;;16.30;14.47;;;;;;;42.75;33.31;101277.50;5115524;27;20849;-75
2022/11/14 09:28:40;;;;;;;15.83;11.93;;;;;;;42.84;33.44;101273.59;5098644;27;21051;-75
2022/11/14 09:31:12;;;;;;;15.80;12.97;;;;;;;43.00;33.48;101270.31;5104729;28;20447;-75
2022/11/14 09:33:39;;;;;;;16.43;11.10;;;;;;;43.11;33.06;101272.31;5062393;28;20816;-75
2022/11/14 09:36:07;;;;;;;14.37;9.57;;;;;;;42.96;33.18;101267.41;5078043;28;20476;-75
2022/11/14 09:38:34;;;;;;;18.83;11.00;;;;;;;42.74;33.76;101273.19;5078428;28;20842;-74
2022/11/14 09:41:27;;;;;;;26.07;15.13;;;;;;;42.83;33.72;101282.91;5113405;28;20460;-74
2022/11/14 09:44:05;;;;;;;23.17;16.33;;;;;;;42.69;33.81;101273.38;5094832;28;20909;-74
2022/11/14 09:46:38;;;;;;;16.43;12.17;;;;;;;42.35;34.13;101278.63;5094789;28;20965;-74
2022/11/14 09:49:13;;;;;;;19.77;13.93;;;;;;;42.14;34.55;101283.97;5078220;28;20448;-75
2022/11/14 09:51:48;;;;;;;26.00;14.73;;;;;;;42.31;34.63;101280.44;5095010;28;20486;-75
2022/11/14 09:54:28;;;;;;;22.43;15.40;;;;;;;42.48;34.70;101278.72;5094843;28;20468;-75
2022/11/14 09:56:54;;;;;;;22.10;14.10;;;;;;;42.67;34.43;101286.56;5113460;28;20898;-73
2022/11/14 09:59:20;;;;;;;21.80;13.87;;;;;;;42.79;33.89;101281.19;5094784;28;20453;-73
2022/11/14 10:02:03;;;;;;;21.90;14.20;;;;;;;42.87;33.63;101283.84;5094893;28;20869;-75
2022/11/14 10:05:01;;;;;;;21.60;14.63;;;;;;;43.00;33.55;101276.56;5094886;28;20427;-73
2022/11/14 10:07:52;;;;;;;26.67;14.97;;;;;;;43.14;33.35;101273.56;5069683;28;20437;-73
2022/11/14 10:10:47;;;;;;;22.90;13.33;;;;;;;43.18;33.46;101275.31;5094632;28;20462;-72
2022/11/14 10:13:46;;;;;;;18.33;12.80;;;;;;;43.16;33.55;101266.66;5094560;28;20427;-72
2022/11/14 10:16:45;;;;;;;20.70;13.60;;;;;;;43.12;33.67;101273.13;5077983;28;20438;-72
2022/11/14 10:19:33;;;;;;;22.07;14.40;;;;;;;43.15;33.50;101266.97;5094541;28;20580;-72
2022/11/14 10:22:25;;;;;;;21.47;16.80;;;;;;;43.23;33.38;101263.41;5094497;28;20831;-72
2022/11/14 10:25:06;;;;;;;22.17;13.40;;;;;;;43.12;33.26;101265.72;5094488;28;20419;-72
2022/11/14 10:27:42;;;;;;;22.80;13.70;;;;;;;43.03;33.65;101262.28;5094514;28;20420;-72
2022/11/14 10:30:15;;;;;;;24.30;18.67;;;;;;;42.97;34.05;101247.19;5094292;28;20451;-72
2022/11/14 10:32:46;;;;;;;24.03;13.70;;;;;;;42.89;33.81;101246.09;5096275;28;21022;-72
2022/11/14 10:35:32;;;;;;;17.63;13.60;;;;;;;42.79;33.78;101246.50;5116528;28;20400;-72
2022/11/14 10:38:20;;;;;;;23.17;14.40;;;;;;;42.82;33.80;101242.31;5081298;28;20448;-74
2022/11/14 10:41:01;;;;;;;27.80;13.00;;;;;;;43.00;33.76;101235.63;5117031;28;20889;-74
2022/11/14 10:43:49;;;;;;;23.80;13.53;;;;;;;42.86;34.24;101235.88;5098213;28;20423;-73
2022/11/14 10:46:36;;;;;;;19.90;11.30;;;;;;;42.83;34.09;101227.53;5116602;28;20435;-71
2022/11/14 10:49:19;;;;;;;19.60;12.07;;;;;;;43.03;34.13;101232.25;5083593;28;20998;-72
2022/11/14 10:51:58;;;;;;;18.20;10.80;;;;;;;43.08;33.88;101223.03;5057675;28;20886;-72
2022/11/14 10:54:38;;;;;;;17.97;11.83;;;;;;;43.32;33.68;101219.63;5057932;28;20413;-72
2022/11/14 10:57:17;;;;;;;16.93;10.40;;;;;;;43.33;33.23;101216.53;5075999;28;20413;-72
2022/11/14 10:59:43;;;;;;;21.73;11.33;;;;;;;43.47;33.55;101218.22;5074176;28;20806;-72
2022/11/14 11:02:09;;;;;;;19.87;11.90;;;;;;;43.59;33.15;101212.81;5074236;28;20422;-74
2022/11/14 11:04:37;;;;;;;13.93;9.83;;;;;;;43.57;32.81;101213.13;5074162;28;20414;-74
2022/11/14 11:07:06;;;;;;;18.80;11.13;;;;;;;43.64;32.44;101207.91;5075814;28;20399;-73
2022/11/14 11:12:24;;;;;;;44.27;13.47;;;;;;;43.34;32.64;101198.22;5075594;28;20436;-75
2022/11/14 11:15:30;;;;;;;21.57;12.77;;;;;;;43.48;32.80;101197.97;5073904;28;20421;-74
2022/11/14 11:17:59;;;;;;;23.73;12.00;;;;;;;43.41;33.05;101188.41;5073894;28;20414;-75
2022/11/14 11:20:36;;;;;;;77.47;56.80;;;;;;;43.62;32.58;101198.47;5073843;28;20410;-74
2022/11/14 11:23:14;;;;;;;28.60;16.60;;;;;;;43.07;32.55;101192.22;5077977;28;20413;-72